x

Buoy I01 - Eastern Maine Shelf (44034) Wave Buoy

1:04 - Thu 30th Mar 2017 All times are EDT. -4 hours from GMT.

  • Sig Wave height 3.0ft
  • Peak Period 4s
  • Wind
    20mph, 25mph gusts
  • Sea Temp 39°f
  • Ar Temp 37°f
  • Sea Pressure 1016.6mb
  • Buoy I01 - Eastern Maine Shelf
  • Buoy I01 - Eastern Maine Shelf

More Historic Weather Station data

Upgrade to MSW Pro to gain access to the past 30 days of data for over 8000 Wavebouys and Weather Stations around the globe.

Join Pro

Comparision Forecast

View Surf forecast
   
Qui 03/30 1:04 3ft 4s 20 25 mph 1016.6mb 39f 37f
12:04 3.5ft 4s 20 22 mph 1016.4mb 39f 37f
Qua 03/29 11:04 3.5ft 4s 20 22 mph 1016.2mb 39f 37f
10:04 3ft 5s 18 22 mph 1016.2mb 39f 38f
9:04 2.5ft 5s 18 22 mph 1016.4mb 39f 38f
8:04 2.5ft 3s 13 18 mph 1015.9mb 39f 38f
7:04 2ft 4s 18 20 mph 1015mb 39f 39f
6:04 2ft 4s 11 13 mph 1014.5mb 39f 38f
5:04 2ft 4s 16 18 mph 1013.8mb 38f 37f
4:04 2.5ft 4s 13 16 mph 1013.9mb 38f 38f
3:04 2ft 3s 13
mph
1013.8mb 38f 38f
2:04 3ft 8s 18 20 mph 1013.8mb 38f 37f
1:04 2.5ft 8s 13
mph
1014.1mb 38f 36f
12:04 3ft 6s 11 13 mph 1014mb 38f 36f
11:04 3.5ft 6s 13 16 mph 1014.1mb 38f 36f
10:04 3ft 6s 16 18 mph 1014.2mb 38f 36f
9:04 3.5ft 8s 16 18 mph 1014.4mb 38f 35f
8:04 3.5ft 8s 16 18 mph 1014.7mb 38f 35f
7:04 1.6ft 3s 16 18 mph 1014.4mb 38f 35f
6:04 2.5ft 6s 13 16 mph 1014.3mb 38f 35f
5:04 1.3ft 2s 13 16 mph 1014.2mb 38f 36f
4:04 2.5ft 6s 13 16 mph 1014.1mb 39f 36f
3:04 3ft 6s 11 13 mph 1014mb 39f 36f
2:04 2.5ft 8s 2 4 mph 1014.7mb 38f 37f
1:04 3ft 6s 2 4 mph 1014.9mb 38f 37f
12:04 3ft 6s 4
mph
1015.1mb 37f 37f
Ter 03/28 11:04 2.5ft 8s 4
mph
1015.1mb 37f 37f
10:04 3.5ft 6s 4
mph
1015.6mb 37f 37f
9:04 3.5ft 6s 7
mph
1015.9mb 38f 37f
8:04 3ft 8s 7 9 mph 1016mb 38f 37f
7:04 3.5ft 6s 9 11 mph 1015.4mb 38f 37f
6:04 3.5ft 8s 7 9 mph 1015.9mb 38f 37f
5:04 3.5ft 8s 7 9 mph 1016.1mb 37f 36f
4:04 4ft 6s 11 13 mph 1015.7mb 37f 36f
10:04 4.5ft 6s 13 16 mph 1016.7mb 38f 35f
9:04 5ft 8s 16 18 mph 1016.5mb 38f 35f
8:04 5ft 6s 16 20 mph 1016.4mb 37f 35f
7:04 5ft 6s 16 18 mph 1016.2mb 37f 35f
6:04 5ft 6s 20 25 mph 1015.3mb 37f 35f
5:04 5ft 5s 20 25 mph 1015.3mb 38f 35f
4:04 6ft 6s 20 22 mph 1015.3mb 39f 35f
3:04 6ft 6s 22 25 mph 1015.3mb 39f 36f
2:04 7ft 8s 22 27 mph 1014.9mb 39f 36f
1:04 8ft 8s 22 27 mph 1014.5mb 39f 36f
12:04 7ft 8s 22 27 mph 1014.5mb 40f 37f
Seg 03/27 11:04 9ft 8s 22 27 mph 1014.8mb 40f 37f
10:04 9ft 8s 22 25 mph 1015.6mb 40f 37f
9:04 8ft 6s 22 29 mph 1016.4mb 40f 37f
8:04 8ft 8s 22 29 mph 1017.2mb 39f 36f
7:04 8ft 6s 22 27 mph 1018.3mb 39f 36f
6:04 7.5ft 6s 22 25 mph 1019.3mb 39f 35f
5:04 8ft 6s 27 31 mph 1019.1mb 39f 35f
4:04 7.5ft 6s 29 34 mph 1019.9mb 39f 35f
3:04 7ft 6s 25 29 mph 1021.7mb 40f 35f
2:04 6ft 5s 25 27 mph 1023.4mb 40f 35f
1:04 5.5ft 5s 22 27 mph 1024.4mb 40f 35f
12:04 5.5ft 5s 22 27 mph 1024.8mb 40f 36f
11:04 4.5ft 5s 22 27 mph 1025.2mb 40f 36f
10:04 3.5ft 4s 20 25 mph 1026.3mb 40f 35f
9:04 3ft 4s 20 27 mph 1026.8mb 40f 36f
8:04 2.5ft 3s 20 22 mph 1027mb 40f 35f
7:04 1.3ft 3s 18 20 mph 1027.9mb 40f 35f
6:04 1.3ft 8s 16 18 mph 1028.5mb 40f 33f
5:04 1.3ft 8s 11
mph
1029.1mb 40f 32f
4:04 1.3ft 8s 7 9 mph 1029.6mb 40f 31f
3:04 1.6ft 8s 4 9 mph 1030.1mb 40f 35f
2:04 1.3ft 8s 4 7 mph 1030.1mb 40f 35f
1:04 1.6ft 8s 7 9 mph 1030mb 40f 35f
12:04 1.6ft 8s 7 9 mph 1030.8mb 40f 34f
Dom 03/26 11:04 2ft 8s 7 9 mph 1031.1mb 40f 34f
10:04 2ft 8s 11 13 mph 1031.7mb 40f 34f
9:04 2.5ft 8s 13 16 mph 1032.2mb 40f 33f
8:04 2ft 8s 11 13 mph 1032.5mb 40f 33f
7:04 2ft 8s 11 13 mph 1032.7mb 40f 32f
6:04 2ft 8s 9 11 mph 1032.7mb 40f 31f
5:04 2ft 11s 9 11 mph 1032.9mb 40f 31f
4:04 1.6ft 8s 7 11 mph 1033.1mb 40f 31f
3:04 2.5ft 11s 4 9 mph 1033.6mb 40f 31f
2:04 2.5ft 8s 2 4 mph 1034.2mb 40f 30f
1:04 2ft 4s 4 7 mph 1034.6mb 40f 29f
12:04 3ft 5s 7 11 mph 1034.9mb 40f 29f
11:04 3ft 5s 11 13 mph 1035.1mb 39f 28f
10:04 3.5ft 5s 13 16 mph 1035.3mb 39f 27f
9:04 3.5ft 5s 13 20 mph 1035.2mb 39f 27f
8:04 3.5ft 5s 18 20 mph 1034.8mb 40f 27f
7:04 3.5ft 5s 16 20 mph 1034.3mb 40f 28f